Aérodrome :
LOGIN :

S'inscrire | Disclaimer

   EN    FR    IT 

 










Légende :    VFR   VFR Marginal   IFR   IFR Intensif   IFR Très Intensif
Visi : 
Plafond : 
>= 8 km
>= 3000ft
5 à 8 km
1000 à 3000 ft
1500m à 5 km
500 à 1000 ft
800 à 1500m
200 à 500 ft
< 800m
< 200 ft
Symboles :   Orages  Brouillard  Fortes neiges  Fortes précipitations  Vent > 20 kt
SIGMETs :   Divers  Orages  Givrage  Turbulence  Onde Orograph.  Cendres Volcan.







- Altitude de l'aérodrome : 147 ft
- Code IATA : DUS


EDDL - Düsseldorf Int.

DERNIER METAR :
  • 231620Z 23016KT 9999 SCT041 SCT080 20/11 Q1013 NOSIG

METARs EXPIRÉS :
  • 231550Z 23015KT 9999 SCT037 SCT080 20/12 Q1013 NOSIG
  • 231520Z 23016KT 9999 VCSH FEW028TCU SCT031 20/12 Q1013 NOSIG
  • 231450Z 23018KT 9999 VCSH FEW028TCU SCT080 20/12 Q1013 NOSIG
  • 231420Z 24015KT 9999 -SHRA FEW025CB SCT038 BKN070 17/12 Q1014 NOSIG
  • 231354Z 24018G33KT 210V270 9999 -SHRA FEW025 FEW032CB SCT043 BKN090 19/11 Q1014 NOSIG
  • 231350Z 23019KT 9999 -SHRA FEW025 FEW032CB SCT043 BKN090 20/11 Q1013 NOSIG
  • 231328Z 24016G28KT 9999 VCSH FEW032CB SCT041 BKN090 21/11 Q1013 NOSIG

TAF TAF EDDL
Valide du 23 à 12h jusqu'au 24 à 18h UTC


231100Z 2312/2418 23015G25KT 9999 SCT040
TEMPO 2312/2316 23020G35KT
BECMG 2316/2319 22008KT
BECMG 2323/2402 15007KT
TEMPO 2403/2418 RA
PROB30
TEMPO 2412/2418 4500 TSRA BKN015CB
Pas de NOTAMs connus pour ce terrain.



MET'MAP, la Météo Aéronautique d'un coup d'oeil ! - Copyright ORBIFLY Décembre 2007 - Disclaimer

ORBIFLY MET'MAP TEAM :

Programmation & Développement : Alexandra Zaïnal
Conception & Développement : Baudouin d'Aumeries
Co-Programmation & Développement : Marc-Olivier Méhu
Soutien technique & logistique : Manuel Goepfert

Contact : metmap@orbifly.com




SOURCES & CREDITS :

   NOAA